sensor_id;sensor_type;location;lat;lon;timestamp;temperature;humidity
7234;DHT22;3658;47.992;10.158;2022-07-30T00:01:06;24.30;55.60
7234;DHT22;3658;47.992;10.158;2022-07-30T00:03:33;24.20;55.50
7234;DHT22;3658;47.992;10.158;2022-07-30T00:06:00;24.30;55.60
7234;DHT22;3658;47.992;10.158;2022-07-30T00:08:29;24.30;55.60
7234;DHT22;3658;47.992;10.158;2022-07-30T00:10:56;24.30;55.60
7234;DHT22;3658;47.992;10.158;2022-07-30T00:13:23;24.30;55.60
7234;DHT22;3658;47.992;10.158;2022-07-30T00:15:50;24.20;55.40
7234;DHT22;3658;47.992;10.158;2022-07-30T00:18:17;24.20;55.50
7234;DHT22;3658;47.992;10.158;2022-07-30T00:20:43;24.30;55.50
7234;DHT22;3658;47.992;10.158;2022-07-30T00:23:10;24.20;55.50
7234;DHT22;3658;47.992;10.158;2022-07-30T00:25:39;24.20;55.40
7234;DHT22;3658;47.992;10.158;2022-07-30T00:28:06;24.20;55.40
7234;DHT22;3658;47.992;10.158;2022-07-30T00:30:33;24.20;55.40
7234;DHT22;3658;47.992;10.158;2022-07-30T00:33:00;24.20;55.40
7234;DHT22;3658;47.992;10.158;2022-07-30T00:35:27;24.20;55.40
7234;DHT22;3658;47.992;10.158;2022-07-30T00:37:54;24.20;55.40
7234;DHT22;3658;47.992;10.158;2022-07-30T00:40:21;24.20;55.40
7234;DHT22;3658;47.992;10.158;2022-07-30T00:42:50;24.20;55.40
7234;DHT22;3658;47.992;10.158;2022-07-30T00:45:17;24.20;55.40
7234;DHT22;3658;47.992;10.158;2022-07-30T00:47:44;24.20;55.40
7234;DHT22;3658;47.992;10.158;2022-07-30T00:50:12;24.20;55.40
7234;DHT22;3658;47.992;10.158;2022-07-30T00:52:40;24.20;55.40
7234;DHT22;3658;47.992;10.158;2022-07-30T00:55:09;24.20;55.40
7234;DHT22;3658;47.992;10.158;2022-07-30T00:57:37;24.20;55.40
7234;DHT22;3658;47.992;10.158;2022-07-30T01:00:09;24.20;55.40
7234;DHT22;3658;47.992;10.158;2022-07-30T01:02:36;24.20;55.40
7234;DHT22;3658;47.992;10.158;2022-07-30T01:05:04;24.20;55.40
7234;DHT22;3658;47.992;10.158;2022-07-30T01:07:32;24.20;55.40
7234;DHT22;3658;47.992;10.158;2022-07-30T01:09:59;24.20;55.40
7234;DHT22;3658;47.992;10.158;2022-07-30T01:12:26;24.20;55.40
7234;DHT22;3658;47.992;10.158;2022-07-30T01:14:55;24.20;55.40
7234;DHT22;3658;47.992;10.158;2022-07-30T01:17:23;24.20;55.40
7234;DHT22;3658;47.992;10.158;2022-07-30T01:19:53;24.20;55.40
7234;DHT22;3658;47.992;10.158;2022-07-30T01:22:38;24.20;55.40
7234;DHT22;3658;47.992;10.158;2022-07-30T01:25:13;24.20;55.40
7234;DHT22;3658;47.992;10.158;2022-07-30T01:27:47;24.20;55.30
7234;DHT22;3658;47.992;10.158;2022-07-30T01:30:18;24.20;55.40
7234;DHT22;3658;47.992;10.158;2022-07-30T01:32:47;24.20;55.30
7234;DHT22;3658;47.992;10.158;2022-07-30T01:35:15;24.20;55.30
7234;DHT22;3658;47.992;10.158;2022-07-30T01:37:44;24.20;55.30
7234;DHT22;3658;47.992;10.158;2022-07-30T01:40:12;24.20;55.30
7234;DHT22;3658;47.992;10.158;2022-07-30T01:42:42;24.20;55.30
7234;DHT22;3658;47.992;10.158;2022-07-30T01:45:10;24.20;55.30
7234;DHT22;3658;47.992;10.158;2022-07-30T01:47:40;24.20;55.30
7234;DHT22;3658;47.992;10.158;2022-07-30T01:50:11;24.20;55.40
7234;DHT22;3658;47.992;10.158;2022-07-30T01:52:41;24.20;55.30
7234;DHT22;3658;47.992;10.158;2022-07-30T01:55:13;24.20;55.30
7234;DHT22;3658;47.992;10.158;2022-07-30T01:57:44;24.20;55.40
7234;DHT22;3658;47.992;10.158;2022-07-30T02:00:13;24.20;55.30
7234;DHT22;3658;47.992;10.158;2022-07-30T02:02:41;24.20;55.30
7234;DHT22;3658;47.992;10.158;2022-07-30T02:05:08;24.20;55.30
7234;DHT22;3658;47.992;10.158;2022-07-30T02:07:39;24.20;55.30
7234;DHT22;3658;47.992;10.158;2022-07-30T02:10:11;24.20;55.30
7234;DHT22;3658;47.992;10.158;2022-07-30T02:12:45;24.20;55.30
7234;DHT22;3658;47.992;10.158;2022-07-30T02:15:19;24.20;55.30
7234;DHT22;3658;47.992;10.158;2022-07-30T02:17:56;24.20;55.30
7234;DHT22;3658;47.992;10.158;2022-07-30T02:20:26;24.10;55.20
7234;DHT22;3658;47.992;10.158;2022-07-30T02:22:57;24.20;55.30
7234;DHT22;3658;47.992;10.158;2022-07-30T02:25:26;24.20;55.30
7234;DHT22;3658;47.992;10.158;2022-07-30T02:27:57;24.20;55.30
7234;DHT22;3658;47.992;10.158;2022-07-30T02:30:30;24.10;55.20
7234;DHT22;3658;47.992;10.158;2022-07-30T02:33:02;24.10;55.20
7234;DHT22;3658;47.992;10.158;2022-07-30T02:35:30;24.10;55.20
7234;DHT22;3658;47.992;10.158;2022-07-30T02:37:59;24.20;55.30
7234;DHT22;3658;47.992;10.158;2022-07-30T02:40:27;24.10;55.20
7234;DHT22;3658;47.992;10.158;2022-07-30T02:42:55;24.10;55.20
7234;DHT22;3658;47.992;10.158;2022-07-30T02:45:23;24.10;55.20
7234;DHT22;3658;47.992;10.158;2022-07-30T02:47:55;24.10;55.20
7234;DHT22;3658;47.992;10.158;2022-07-30T02:50:23;24.10;55.10
7234;DHT22;3658;47.992;10.158;2022-07-30T02:52:51;24.10;55.20
7234;DHT22;3658;47.992;10.158;2022-07-30T02:55:19;24.10;55.10
7234;DHT22;3658;47.992;10.158;2022-07-30T02:57:48;24.10;55.20
7234;DHT22;3658;47.992;10.158;2022-07-30T03:00:17;24.10;55.20
7234;DHT22;3658;47.992;10.158;2022-07-30T03:02:45;24.10;55.20
7234;DHT22;3658;47.992;10.158;2022-07-30T03:05:14;24.10;55.10
7234;DHT22;3658;47.992;10.158;2022-07-30T03:07:42;24.10;55.10
7234;DHT22;3658;47.992;10.158;2022-07-30T03:10:11;24.10;55.10
7234;DHT22;3658;47.992;10.158;2022-07-30T03:12:40;24.10;55.10
7234;DHT22;3658;47.992;10.158;2022-07-30T03:15:08;24.10;55.10
7234;DHT22;3658;47.992;10.158;2022-07-30T03:17:37;24.10;55.10
7234;DHT22;3658;47.992;10.158;2022-07-30T03:20:08;24.10;55.10
7234;DHT22;3658;47.992;10.158;2022-07-30T03:22:43;24.10;55.10
7234;DHT22;3658;47.992;10.158;2022-07-30T03:25:15;24.10;55.10
7234;DHT22;3658;47.992;10.158;2022-07-30T03:27:42;24.10;55.10
7234;DHT22;3658;47.992;10.158;2022-07-30T03:30:11;24.10;55.10
7234;DHT22;3658;47.992;10.158;2022-07-30T03:32:39;24.10;55.10
7234;DHT22;3658;47.992;10.158;2022-07-30T03:35:07;24.10;55.10
7234;DHT22;3658;47.992;10.158;2022-07-30T03:37:38;24.10;55.10
7234;DHT22;3658;47.992;10.158;2022-07-30T03:40:06;24.10;55.10
7234;DHT22;3658;47.992;10.158;2022-07-30T03:42:34;24.10;55.10
7234;DHT22;3658;47.992;10.158;2022-07-30T03:45:04;24.10;55.10
7234;DHT22;3658;47.992;10.158;2022-07-30T03:47:32;24.10;55.10
7234;DHT22;3658;47.992;10.158;2022-07-30T03:50:00;24.10;55.10
7234;DHT22;3658;47.992;10.158;2022-07-30T03:52:27;24.10;55.10
7234;DHT22;3658;47.992;10.158;2022-07-30T03:54:56;24.10;55.10
7234;DHT22;3658;47.992;10.158;2022-07-30T03:57:24;24.10;55.10
7234;DHT22;3658;47.992;10.158;2022-07-30T03:59:52;24.10;55.10
7234;DHT22;3658;47.992;10.158;2022-07-30T04:02:19;24.10;55.10
7234;DHT22;3658;47.992;10.158;2022-07-30T04:04:46;24.10;55.10
7234;DHT22;3658;47.992;10.158;2022-07-30T04:07:13;24.10;55.10
7234;DHT22;3658;47.992;10.158;2022-07-30T04:09:40;24.10;55.10
7234;DHT22;3658;47.992;10.158;2022-07-30T04:12:08;24.10;55.10
7234;DHT22;3658;47.992;10.158;2022-07-30T04:14:40;24.10;55.10
7234;DHT22;3658;47.992;10.158;2022-07-30T04:17:11;24.10;55.10
7234;DHT22;3658;47.992;10.158;2022-07-30T04:19:42;24.10;55.10
7234;DHT22;3658;47.992;10.158;2022-07-30T04:22:12;24.10;55.10
7234;DHT22;3658;47.992;10.158;2022-07-30T04:24:43;24.10;55.10
7234;DHT22;3658;47.992;10.158;2022-07-30T04:27:12;24.10;55.10
7234;DHT22;3658;47.992;10.158;2022-07-30T04:29:40;24.10;55.10
7234;DHT22;3658;47.992;10.158;2022-07-30T04:32:07;24.10;55.10
7234;DHT22;3658;47.992;10.158;2022-07-30T04:34:35;24.10;55.10
7234;DHT22;3658;47.992;10.158;2022-07-30T04:37:02;24.10;55.10
7234;DHT22;3658;47.992;10.158;2022-07-30T04:39:29;24.10;55.10
7234;DHT22;3658;47.992;10.158;2022-07-30T04:41:56;24.10;55.10
7234;DHT22;3658;47.992;10.158;2022-07-30T04:44:25;24.10;55.70
7234;DHT22;3658;47.992;10.158;2022-07-30T04:46:52;24.10;55.10
7234;DHT22;3658;47.992;10.158;2022-07-30T04:49:19;24.10;55.10
7234;DHT22;3658;47.992;10.158;2022-07-30T04:51:47;24.10;55.10
7234;DHT22;3658;47.992;10.158;2022-07-30T04:54:15;24.10;55.10
7234;DHT22;3658;47.992;10.158;2022-07-30T04:56:46;24.10;55.10
7234;DHT22;3658;47.992;10.158;2022-07-30T04:59:14;24.10;55.10
7234;DHT22;3658;47.992;10.158;2022-07-30T05:01:45;24.10;55.10
7234;DHT22;3658;47.992;10.158;2022-07-30T05:04:14;24.10;55.10
7234;DHT22;3658;47.992;10.158;2022-07-30T05:06:42;24.10;55.10
7234;DHT22;3658;47.992;10.158;2022-07-30T05:09:10;24.10;55.10
7234;DHT22;3658;47.992;10.158;2022-07-30T05:11:37;24.10;55.10
7234;DHT22;3658;47.992;10.158;2022-07-30T05:14:04;24.10;55.10
7234;DHT22;3658;47.992;10.158;2022-07-30T05:16:31;24.10;55.10
7234;DHT22;3658;47.992;10.158;2022-07-30T05:19:01;24.10;55.10
7234;DHT22;3658;47.992;10.158;2022-07-30T05:21:28;24.10;55.10
7234;DHT22;3658;47.992;10.158;2022-07-30T05:23:55;24.10;55.10
7234;DHT22;3658;47.992;10.158;2022-07-30T05:26:22;24.10;55.10
7234;DHT22;3658;47.992;10.158;2022-07-30T05:28:48;24.10;55.00
7234;DHT22;3658;47.992;10.158;2022-07-30T05:31:15;24.10;55.00
7234;DHT22;3658;47.992;10.158;2022-07-30T05:33:42;24.10;55.10
7234;DHT22;3658;47.992;10.158;2022-07-30T05:36:11;24.10;55.10
7234;DHT22;3658;47.992;10.158;2022-07-30T05:38:38;24.00;54.90
7234;DHT22;3658;47.992;10.158;2022-07-30T05:41:05;24.10;55.10
7234;DHT22;3658;47.992;10.158;2022-07-30T05:43:32;24.10;55.00
7234;DHT22;3658;47.992;10.158;2022-07-30T05:45:59;24.10;55.00
7234;DHT22;3658;47.992;10.158;2022-07-30T05:48:25;24.10;55.00
7234;DHT22;3658;47.992;10.158;2022-07-30T05:50:53;24.10;55.10
7234;DHT22;3658;47.992;10.158;2022-07-30T05:53:21;24.10;55.00
7234;DHT22;3658;47.992;10.158;2022-07-30T05:55:48;24.00;55.00
7234;DHT22;3658;47.992;10.158;2022-07-30T05:58:15;24.00;55.10
7234;DHT22;3658;47.992;10.158;2022-07-30T06:00:43;24.00;55.10
7234;DHT22;3658;47.992;10.158;2022-07-30T06:03:10;24.00;55.10
7234;DHT22;3658;47.992;10.158;2022-07-30T06:05:37;24.00;55.10
7234;DHT22;3658;47.992;10.158;2022-07-30T06:08:04;24.00;55.20
7234;DHT22;3658;47.992;10.158;2022-07-30T06:10:35;23.90;55.20
7234;DHT22;3658;47.992;10.158;2022-07-30T06:13:03;23.90;55.40
7234;DHT22;3658;47.992;10.158;2022-07-30T06:15:30;23.90;55.50
7234;DHT22;3658;47.992;10.158;2022-07-30T06:17:57;23.90;55.50
7234;DHT22;3658;47.992;10.158;2022-07-30T06:20:24;23.90;55.70
7234;DHT22;3658;47.992;10.158;2022-07-30T06:22:51;23.90;55.60
7234;DHT22;3658;47.992;10.158;2022-07-30T06:25:18;23.90;55.60
7234;DHT22;3658;47.992;10.158;2022-07-30T06:27:46;23.90;55.60
7234;DHT22;3658;47.992;10.158;2022-07-30T06:30:13;23.90;55.40
7234;DHT22;3658;47.992;10.158;2022-07-30T06:32:40;23.90;55.30
7234;DHT22;3658;47.992;10.158;2022-07-30T06:35:08;24.00;55.30
7234;DHT22;3658;47.992;10.158;2022-07-30T06:37:35;24.00;55.30
7234;DHT22;3658;47.992;10.158;2022-07-30T06:40:02;24.00;55.20
7234;DHT22;3658;47.992;10.158;2022-07-30T06:42:29;24.00;55.20
7234;DHT22;3658;47.992;10.158;2022-07-30T06:44:58;24.00;55.20
7234;DHT22;3658;47.992;10.158;2022-07-30T06:47:25;24.00;55.20
7234;DHT22;3658;47.992;10.158;2022-07-30T06:49:53;24.00;55.10
7234;DHT22;3658;47.992;10.158;2022-07-30T06:52:21;24.00;55.10
7234;DHT22;3658;47.992;10.158;2022-07-30T06:54:48;24.00;55.10
7234;DHT22;3658;47.992;10.158;2022-07-30T06:57:15;24.00;55.20
7234;DHT22;3658;47.992;10.158;2022-07-30T06:59:42;24.00;55.20
7234;DHT22;3658;47.992;10.158;2022-07-30T07:02:10;24.00;55.20
7234;DHT22;3658;47.992;10.158;2022-07-30T07:04:37;24.00;55.80
7234;DHT22;3658;47.992;10.158;2022-07-30T07:07:04;24.00;55.20
7234;DHT22;3658;47.992;10.158;2022-07-30T07:09:31;24.00;55.20
7234;DHT22;3658;47.992;10.158;2022-07-30T07:11:58;24.00;55.20
7234;DHT22;3658;47.992;10.158;2022-07-30T07:14:25;24.00;55.20
7234;DHT22;3658;47.992;10.158;2022-07-30T07:16:52;24.00;55.20
7234;DHT22;3658;47.992;10.158;2022-07-30T07:19:21;24.00;55.20
7234;DHT22;3658;47.992;10.158;2022-07-30T07:21:48;24.00;55.30
7234;DHT22;3658;47.992;10.158;2022-07-30T07:24:15;24.00;55.30
7234;DHT22;3658;47.992;10.158;2022-07-30T07:26:42;24.00;55.90
7234;DHT22;3658;47.992;10.158;2022-07-30T07:29:10;24.00;55.30
7234;DHT22;3658;47.992;10.158;2022-07-30T07:31:37;24.00;55.30
7234;DHT22;3658;47.992;10.158;2022-07-30T07:34:04;24.00;55.30
7234;DHT22;3658;47.992;10.158;2022-07-30T07:36:32;24.00;55.30
7234;DHT22;3658;47.992;10.158;2022-07-30T07:39:00;24.00;55.30
7234;DHT22;3658;47.992;10.158;2022-07-30T07:41:27;24.00;55.30
7234;DHT22;3658;47.992;10.158;2022-07-30T07:43:54;24.00;55.30
7234;DHT22;3658;47.992;10.158;2022-07-30T07:46:21;24.00;55.30
7234;DHT22;3658;47.992;10.158;2022-07-30T07:48:48;24.00;55.30
7234;DHT22;3658;47.992;10.158;2022-07-30T07:51:15;24.00;55.30
7234;DHT22;3658;47.992;10.158;2022-07-30T07:53:43;24.00;55.30
7234;DHT22;3658;47.992;10.158;2022-07-30T07:56:10;24.00;55.30
7234;DHT22;3658;47.992;10.158;2022-07-30T07:58:38;24.00;55.30
7234;DHT22;3658;47.992;10.158;2022-07-30T08:01:05;24.00;55.30
7234;DHT22;3658;47.992;10.158;2022-07-30T08:03:32;24.00;55.30
7234;DHT22;3658;47.992;10.158;2022-07-30T08:05:59;24.00;55.30
7234;DHT22;3658;47.992;10.158;2022-07-30T08:08:26;24.00;55.30
7234;DHT22;3658;47.992;10.158;2022-07-30T08:10:55;24.00;55.30
7234;DHT22;3658;47.992;10.158;2022-07-30T08:13:22;24.00;55.30
7234;DHT22;3658;47.992;10.158;2022-07-30T08:15:49;24.00;55.30
7234;DHT22;3658;47.992;10.158;2022-07-30T08:18:16;24.00;55.30
7234;DHT22;3658;47.992;10.158;2022-07-30T08:20:43;24.00;55.30
7234;DHT22;3658;47.992;10.158;2022-07-30T08:23:10;23.90;55.30
7234;DHT22;3658;47.992;10.158;2022-07-30T08:25:37;24.00;55.40
7234;DHT22;3658;47.992;10.158;2022-07-30T08:28:05;24.00;55.40
7234;DHT22;3658;47.992;10.158;2022-07-30T08:30:33;24.00;55.40
7234;DHT22;3658;47.992;10.158;2022-07-30T08:32:59;24.00;55.40
7234;DHT22;3658;47.992;10.158;2022-07-30T08:35:26;24.00;55.40
7234;DHT22;3658;47.992;10.158;2022-07-30T08:37:53;24.00;55.40
7234;DHT22;3658;47.992;10.158;2022-07-30T08:40:25;23.90;55.30
7234;DHT22;3658;47.992;10.158;2022-07-30T08:42:52;24.00;55.40
7234;DHT22;3658;47.992;10.158;2022-07-30T08:45:21;23.90;55.30
7234;DHT22;3658;47.992;10.158;2022-07-30T08:47:49;24.00;55.40
7234;DHT22;3658;47.992;10.158;2022-07-30T08:50:18;24.00;55.40
7234;DHT22;3658;47.992;10.158;2022-07-30T08:52:45;23.90;55.30
7234;DHT22;3658;47.992;10.158;2022-07-30T08:55:14;23.90;55.30
7234;DHT22;3658;47.992;10.158;2022-07-30T08:57:42;24.00;55.40
7234;DHT22;3658;47.992;10.158;2022-07-30T09:00:11;24.00;55.40
7234;DHT22;3658;47.992;10.158;2022-07-30T09:02:40;24.00;55.40
7234;DHT22;3658;47.992;10.158;2022-07-30T09:05:08;24.00;55.60
7234;DHT22;3658;47.992;10.158;2022-07-30T09:07:36;24.00;55.40
7234;DHT22;3658;47.992;10.158;2022-07-30T09:10:04;23.90;55.40
7234;DHT22;3658;47.992;10.158;2022-07-30T09:12:36;24.00;55.40
7234;DHT22;3658;47.992;10.158;2022-07-30T09:15:09;24.00;55.40
7234;DHT22;3658;47.992;10.158;2022-07-30T09:17:53;23.90;55.40
7234;DHT22;3658;47.992;10.158;2022-07-30T09:20:23;23.90;55.40
7234;DHT22;3658;47.992;10.158;2022-07-30T09:22:52;24.00;55.40
7234;DHT22;3658;47.992;10.158;2022-07-30T09:25:36;23.90;55.30
7234;DHT22;3658;47.992;10.158;2022-07-30T09:28:04;24.00;55.40
7234;DHT22;3658;47.992;10.158;2022-07-30T09:30:45;24.00;55.40
7234;DHT22;3658;47.992;10.158;2022-07-30T09:33:14;24.00;55.40
7234;DHT22;3658;47.992;10.158;2022-07-30T09:35:42;24.00;55.40
7234;DHT22;3658;47.992;10.158;2022-07-30T09:38:09;24.00;55.40
7234;DHT22;3658;47.992;10.158;2022-07-30T09:40:37;24.00;55.40
7234;DHT22;3658;47.992;10.158;2022-07-30T09:43:05;23.90;55.40
7234;DHT22;3658;47.992;10.158;2022-07-30T09:45:32;24.00;55.40
7234;DHT22;3658;47.992;10.158;2022-07-30T09:48:00;24.00;55.50
7234;DHT22;3658;47.992;10.158;2022-07-30T09:50:28;23.90;55.40
7234;DHT22;3658;47.992;10.158;2022-07-30T09:53:06;23.90;55.40
7234;DHT22;3658;47.992;10.158;2022-07-30T09:55:34;23.90;55.50
7234;DHT22;3658;47.992;10.158;2022-07-30T09:58:03;23.90;55.40
7234;DHT22;3658;47.992;10.158;2022-07-30T10:00:33;23.90;55.40
7234;DHT22;3658;47.992;10.158;2022-07-30T10:03:00;23.90;55.40
7234;DHT22;3658;47.992;10.158;2022-07-30T10:05:29;23.90;55.40
7234;DHT22;3658;47.992;10.158;2022-07-30T10:07:59;23.90;55.40
7234;DHT22;3658;47.992;10.158;2022-07-30T10:10:28;23.90;55.40
7234;DHT22;3658;47.992;10.158;2022-07-30T10:12:57;24.00;55.60
7234;DHT22;3658;47.992;10.158;2022-07-30T10:15:29;24.00;55.50
7234;DHT22;3658;47.992;10.158;2022-07-30T10:17:57;24.00;55.50
7234;DHT22;3658;47.992;10.158;2022-07-30T10:20:25;23.90;55.40
7234;DHT22;3658;47.992;10.158;2022-07-30T10:22:54;24.00;55.50
7234;DHT22;3658;47.992;10.158;2022-07-30T10:25:23;24.00;55.60
7234;DHT22;3658;47.992;10.158;2022-07-30T10:27:50;23.90;55.50
7234;DHT22;3658;47.992;10.158;2022-07-30T10:30:18;23.90;55.50
7234;DHT22;3658;47.992;10.158;2022-07-30T10:32:45;24.00;55.60
7234;DHT22;3658;47.992;10.158;2022-07-30T10:35:13;24.00;55.60
7234;DHT22;3658;47.992;10.158;2022-07-30T10:37:44;24.00;55.60
7234;DHT22;3658;47.992;10.158;2022-07-30T10:40:20;24.00;55.60
7234;DHT22;3658;47.992;10.158;2022-07-30T10:43:04;23.90;55.50
7234;DHT22;3658;47.992;10.158;2022-07-30T10:45:41;23.90;55.50
7234;DHT22;3658;47.992;10.158;2022-07-30T10:48:15;23.90;55.60
7234;DHT22;3658;47.992;10.158;2022-07-30T10:50:50;23.90;55.60
7234;DHT22;3658;47.992;10.158;2022-07-30T10:53:34;23.90;55.60
7234;DHT22;3658;47.992;10.158;2022-07-30T10:56:13;23.90;55.60
7234;DHT22;3658;47.992;10.158;2022-07-30T10:59:03;23.90;55.50
7234;DHT22;3658;47.992;10.158;2022-07-30T11:02:08;23.90;55.60
7234;DHT22;3658;47.992;10.158;2022-07-30T11:04:35;23.90;55.60
7234;DHT22;3658;47.992;10.158;2022-07-30T11:07:28;23.90;55.60
7234;DHT22;3658;47.992;10.158;2022-07-30T11:09:57;23.90;55.60
7234;DHT22;3658;47.992;10.158;2022-07-30T11:12:53;23.90;55.60
7234;DHT22;3658;47.992;10.158;2022-07-30T11:15:20;23.90;55.60
7234;DHT22;3658;47.992;10.158;2022-07-30T11:18:02;23.90;55.60
7234;DHT22;3658;47.992;10.158;2022-07-30T11:20:31;23.90;55.60
7234;DHT22;3658;47.992;10.158;2022-07-30T11:25:50;23.90;55.60
7234;DHT22;3658;47.992;10.158;2022-07-30T11:28:42;23.90;55.70
7234;DHT22;3658;47.992;10.158;2022-07-30T11:31:27;23.90;55.60
7234;DHT22;3658;47.992;10.158;2022-07-30T11:34:28;23.90;55.60
7234;DHT22;3658;47.992;10.158;2022-07-30T11:37:05;23.90;55.60
7234;DHT22;3658;47.992;10.158;2022-07-30T11:40:09;23.90;55.60
7234;DHT22;3658;47.992;10.158;2022-07-30T11:42:38;23.90;55.60
7234;DHT22;3658;47.992;10.158;2022-07-30T11:45:26;23.90;55.60
7234;DHT22;3658;47.992;10.158;2022-07-30T11:47:56;23.90;55.70
7234;DHT22;3658;47.992;10.158;2022-07-30T11:50:26;23.90;55.60
7234;DHT22;3658;47.992;10.158;2022-07-30T11:52:55;23.90;55.60
7234;DHT22;3658;47.992;10.158;2022-07-30T11:55:24;23.90;55.60
7234;DHT22;3658;47.992;10.158;2022-07-30T11:57:51;23.90;56.20
7234;DHT22;3658;47.992;10.158;2022-07-30T12:00:21;23.90;55.70
7234;DHT22;3658;47.992;10.158;2022-07-30T12:02:49;23.90;55.60
7234;DHT22;3658;47.992;10.158;2022-07-30T12:05:22;23.90;55.60
7234;DHT22;3658;47.992;10.158;2022-07-30T12:07:50;23.90;55.60
7234;DHT22;3658;47.992;10.158;2022-07-30T12:10:21;23.90;55.70
7234;DHT22;3658;47.992;10.158;2022-07-30T12:12:48;23.90;55.60
7234;DHT22;3658;47.992;10.158;2022-07-30T12:15:30;23.90;55.70
7234;DHT22;3658;47.992;10.158;2022-07-30T12:17:58;23.90;55.70
7234;DHT22;3658;47.992;10.158;2022-07-30T12:20:26;23.90;55.70
7234;DHT22;3658;47.992;10.158;2022-07-30T12:22:53;23.90;55.70
7234;DHT22;3658;47.992;10.158;2022-07-30T12:25:21;23.90;55.70
7234;DHT22;3658;47.992;10.158;2022-07-30T12:27:49;23.90;55.60
7234;DHT22;3658;47.992;10.158;2022-07-30T12:30:17;23.90;55.60
7234;DHT22;3658;47.992;10.158;2022-07-30T12:32:46;24.00;55.70
7234;DHT22;3658;47.992;10.158;2022-07-30T12:35:13;23.90;55.60
7234;DHT22;3658;47.992;10.158;2022-07-30T12:37:40;24.00;55.70
7234;DHT22;3658;47.992;10.158;2022-07-30T12:40:27;23.90;55.60
7234;DHT22;3658;47.992;10.158;2022-07-30T12:42:54;24.00;55.70
7234;DHT22;3658;47.992;10.158;2022-07-30T12:45:29;24.00;55.70
7234;DHT22;3658;47.992;10.158;2022-07-30T12:47:58;24.00;55.70
7234;DHT22;3658;47.992;10.158;2022-07-30T12:50:26;23.90;55.60
7234;DHT22;3658;47.992;10.158;2022-07-30T12:52:54;23.90;56.30
7234;DHT22;3658;47.992;10.158;2022-07-30T12:55:29;23.90;55.70
7234;DHT22;3658;47.992;10.158;2022-07-30T12:57:58;23.90;55.70
7234;DHT22;3658;47.992;10.158;2022-07-30T13:00:27;23.90;55.70
7234;DHT22;3658;47.992;10.158;2022-07-30T13:02:56;23.90;55.70
7234;DHT22;3658;47.992;10.158;2022-07-30T13:05:45;23.90;55.70
7234;DHT22;3658;47.992;10.158;2022-07-30T13:08:12;23.90;55.70
7234;DHT22;3658;47.992;10.158;2022-07-30T13:10:53;23.90;55.70
7234;DHT22;3658;47.992;10.158;2022-07-30T13:13:20;23.90;55.70
7234;DHT22;3658;47.992;10.158;2022-07-30T13:15:56;23.90;55.70
7234;DHT22;3658;47.992;10.158;2022-07-30T13:18:26;23.90;55.70
7234;DHT22;3658;47.992;10.158;2022-07-30T13:20:53;23.90;55.70
7234;DHT22;3658;47.992;10.158;2022-07-30T13:23:20;23.90;55.70
7234;DHT22;3658;47.992;10.158;2022-07-30T13:25:47;23.90;55.70
7234;DHT22;3658;47.992;10.158;2022-07-30T13:28:14;24.00;55.70
7234;DHT22;3658;47.992;10.158;2022-07-30T13:30:42;23.90;55.60
7234;DHT22;3658;47.992;10.158;2022-07-30T13:33:09;23.90;55.70
7234;DHT22;3658;47.992;10.158;2022-07-30T13:35:37;23.90;55.70
7234;DHT22;3658;47.992;10.158;2022-07-30T13:38:04;23.90;55.70
7234;DHT22;3658;47.992;10.158;2022-07-30T13:40:34;23.90;55.70
7234;DHT22;3658;47.992;10.158;2022-07-30T13:43:02;23.90;55.70
7234;DHT22;3658;47.992;10.158;2022-07-30T13:45:29;23.90;56.30
7234;DHT22;3658;47.992;10.158;2022-07-30T13:47:56;23.90;55.70
7234;DHT22;3658;47.992;10.158;2022-07-30T13:50:24;23.90;55.70
7234;DHT22;3658;47.992;10.158;2022-07-30T13:52:52;23.90;55.70
7234;DHT22;3658;47.992;10.158;2022-07-30T13:55:19;23.90;55.70
7234;DHT22;3658;47.992;10.158;2022-07-30T13:57:47;23.90;55.70
7234;DHT22;3658;47.992;10.158;2022-07-30T14:00:21;23.90;55.80
7234;DHT22;3658;47.992;10.158;2022-07-30T14:02:49;23.90;55.80
7234;DHT22;3658;47.992;10.158;2022-07-30T14:05:16;23.90;55.70
7234;DHT22;3658;47.992;10.158;2022-07-30T14:07:43;23.90;55.70
7234;DHT22;3658;47.992;10.158;2022-07-30T14:10:11;23.90;55.80
7234;DHT22;3658;47.992;10.158;2022-07-30T14:12:38;23.90;55.80
7234;DHT22;3658;47.992;10.158;2022-07-30T14:15:06;23.90;55.70
7234;DHT22;3658;47.992;10.158;2022-07-30T14:17:34;23.90;55.70
7234;DHT22;3658;47.992;10.158;2022-07-30T14:20:01;23.90;55.80
7234;DHT22;3658;47.992;10.158;2022-07-30T14:22:28;23.80;55.70
7234;DHT22;3658;47.992;10.158;2022-07-30T14:24:55;23.90;55.80
7234;DHT22;3658;47.992;10.158;2022-07-30T14:27:23;23.90;55.80
7234;DHT22;3658;47.992;10.158;2022-07-30T14:29:50;23.90;56.10
7234;DHT22;3658;47.992;10.158;2022-07-30T14:32:18;23.90;56.10
7234;DHT22;3658;47.992;10.158;2022-07-30T14:34:45;23.90;56.00
7234;DHT22;3658;47.992;10.158;2022-07-30T14:37:13;23.90;55.90
7234;DHT22;3658;47.992;10.158;2022-07-30T14:39:40;23.90;55.90
7234;DHT22;3658;47.992;10.158;2022-07-30T14:42:07;23.90;55.90
7234;DHT22;3658;47.992;10.158;2022-07-30T14:44:37;23.90;55.90
7234;DHT22;3658;47.992;10.158;2022-07-30T14:47:04;23.90;55.80
7234;DHT22;3658;47.992;10.158;2022-07-30T14:49:32;23.90;55.70
7234;DHT22;3658;47.992;10.158;2022-07-30T14:51:59;23.90;55.70
7234;DHT22;3658;47.992;10.158;2022-07-30T14:54:27;23.90;55.60
7234;DHT22;3658;47.992;10.158;2022-07-30T14:56:56;23.90;55.50
7234;DHT22;3658;47.992;10.158;2022-07-30T14:59:24;23.80;55.40
7234;DHT22;3658;47.992;10.158;2022-07-30T15:01:53;23.90;55.40
7234;DHT22;3658;47.992;10.158;2022-07-30T15:04:20;23.90;55.40
7234;DHT22;3658;47.992;10.158;2022-07-30T15:06:47;23.90;55.40
7234;DHT22;3658;47.992;10.158;2022-07-30T15:09:14;23.90;55.30
7234;DHT22;3658;47.992;10.158;2022-07-30T15:11:41;23.90;55.20
7234;DHT22;3658;47.992;10.158;2022-07-30T15:14:08;23.90;55.10
7234;DHT22;3658;47.992;10.158;2022-07-30T15:16:36;23.90;55.10
7234;DHT22;3658;47.992;10.158;2022-07-30T15:19:05;23.90;55.10
7234;DHT22;3658;47.992;10.158;2022-07-30T15:21:32;23.90;55.00
7234;DHT22;3658;47.992;10.158;2022-07-30T15:23:59;23.90;54.90
7234;DHT22;3658;47.992;10.158;2022-07-30T15:26:26;23.90;54.90
7234;DHT22;3658;47.992;10.158;2022-07-30T15:28:53;23.90;54.70
7234;DHT22;3658;47.992;10.158;2022-07-30T15:31:20;23.90;54.50
7234;DHT22;3658;47.992;10.158;2022-07-30T15:33:47;23.90;54.40
7234;DHT22;3658;47.992;10.158;2022-07-30T15:36:15;23.90;54.50
7234;DHT22;3658;47.992;10.158;2022-07-30T15:38:42;23.90;54.50
7234;DHT22;3658;47.992;10.158;2022-07-30T15:41:09;23.90;54.60
7234;DHT22;3658;47.992;10.158;2022-07-30T15:43:36;23.90;54.60
7234;DHT22;3658;47.992;10.158;2022-07-30T15:46:03;23.90;54.60
7234;DHT22;3658;47.992;10.158;2022-07-30T15:48:30;23.90;54.60
7234;DHT22;3658;47.992;10.158;2022-07-30T15:50:59;23.90;54.80
7234;DHT22;3658;47.992;10.158;2022-07-30T15:53:29;23.90;54.90
7234;DHT22;3658;47.992;10.158;2022-07-30T15:55:56;23.90;54.90
7234;DHT22;3658;47.992;10.158;2022-07-30T15:58:23;23.90;55.00
7234;DHT22;3658;47.992;10.158;2022-07-30T16:00:50;23.90;55.10